sensor_id;sensor_type;location;lat;lon;timestamp;temperature;humidity
51908;DHT22;39320;53.214;6.556;2023-01-24T00:00:14;4.40;99.90
51908;DHT22;39320;53.214;6.556;2023-01-24T00:02:40;4.40;99.90
51908;DHT22;39320;53.214;6.556;2023-01-24T00:05:06;4.40;99.90
51908;DHT22;39320;53.214;6.556;2023-01-24T00:07:32;4.40;99.90
51908;DHT22;39320;53.214;6.556;2023-01-24T00:10:01;4.40;99.90
51908;DHT22;39320;53.214;6.556;2023-01-24T00:12:28;4.20;99.90
51908;DHT22;39320;53.214;6.556;2023-01-24T00:14:57;4.40;99.90
51908;DHT22;39320;53.214;6.556;2023-01-24T00:17:26;4.40;99.90
51908;DHT22;39320;53.214;6.556;2023-01-24T00:19:52;4.60;99.90
51908;DHT22;39320;53.214;6.556;2023-01-24T00:22:21;4.50;99.90
51908;DHT22;39320;53.214;6.556;2023-01-24T00:24:49;5.00;99.90
51908;DHT22;39320;53.214;6.556;2023-01-24T00:27:16;4.40;99.90
51908;DHT22;39320;53.214;6.556;2023-01-24T00:29:42;4.40;99.90
51908;DHT22;39320;53.214;6.556;2023-01-24T00:32:13;4.30;99.90
51908;DHT22;39320;53.214;6.556;2023-01-24T00:34:42;4.80;99.90
51908;DHT22;39320;53.214;6.556;2023-01-24T00:37:07;4.40;99.90
51908;DHT22;39320;53.214;6.556;2023-01-24T00:39:33;4.40;99.90
51908;DHT22;39320;53.214;6.556;2023-01-24T00:42:03;3.10;99.90
51908;DHT22;39320;53.214;6.556;2023-01-24T00:44:29;4.30;99.90
51908;DHT22;39320;53.214;6.556;2023-01-24T00:46:55;4.40;99.90
51908;DHT22;39320;53.214;6.556;2023-01-24T00:49:23;4.40;99.90
51908;DHT22;39320;53.214;6.556;2023-01-24T00:51:52;4.30;99.90
51908;DHT22;39320;53.214;6.556;2023-01-24T00:54:18;4.30;99.90
51908;DHT22;39320;53.214;6.556;2023-01-24T00:56:44;4.40;99.90
51908;DHT22;39320;53.214;6.556;2023-01-24T00:59:12;4.30;99.90
51908;DHT22;39320;53.214;6.556;2023-01-24T01:01:38;4.40;99.90
51908;DHT22;39320;53.214;6.556;2023-01-24T01:04:08;4.40;99.90
51908;DHT22;39320;53.214;6.556;2023-01-24T01:06:34;4.40;99.90
51908;DHT22;39320;53.214;6.556;2023-01-24T01:09:00;4.40;99.90
51908;DHT22;39320;53.214;6.556;2023-01-24T01:11:26;4.40;99.90
51908;DHT22;39320;53.214;6.556;2023-01-24T01:13:58;5.60;99.90
51908;DHT22;39320;53.214;6.556;2023-01-24T01:16:24;4.40;99.90
51908;DHT22;39320;53.214;6.556;2023-01-24T01:18:53;4.20;99.90
51908;DHT22;39320;53.214;6.556;2023-01-24T01:21:21;4.40;99.90
51908;DHT22;39320;53.214;6.556;2023-01-24T01:23:47;4.40;99.90
51908;DHT22;39320;53.214;6.556;2023-01-24T01:26:16;4.40;99.90
51908;DHT22;39320;53.214;6.556;2023-01-24T01:28:42;4.30;99.90
51908;DHT22;39320;53.214;6.556;2023-01-24T01:31:08;4.30;99.90
51908;DHT22;39320;53.214;6.556;2023-01-24T01:33:34;4.30;99.90
51908;DHT22;39320;53.214;6.556;2023-01-24T01:36:00;4.40;99.90
51908;DHT22;39320;53.214;6.556;2023-01-24T01:38:26;4.30;99.90
51908;DHT22;39320;53.214;6.556;2023-01-24T01:40:54;4.40;99.90
51908;DHT22;39320;53.214;6.556;2023-01-24T01:43:23;4.40;99.90
51908;DHT22;39320;53.214;6.556;2023-01-24T01:45:51;4.30;99.90
51908;DHT22;39320;53.214;6.556;2023-01-24T01:51:02;4.30;99.90
51908;DHT22;39320;53.214;6.556;2023-01-24T01:53:35;4.00;99.90
51908;DHT22;39320;53.214;6.556;2023-01-24T01:56:08;4.30;99.90
51908;DHT22;39320;53.214;6.556;2023-01-24T01:58:37;4.30;99.90
51908;DHT22;39320;53.214;6.556;2023-01-24T02:01:04;4.30;99.90
51908;DHT22;39320;53.214;6.556;2023-01-24T02:03:46;4.30;99.90
51908;DHT22;39320;53.214;6.556;2023-01-24T02:08:59;4.30;99.90
51908;DHT22;39320;53.214;6.556;2023-01-24T02:11:27;4.30;99.90
51908;DHT22;39320;53.214;6.556;2023-01-24T02:14:10;4.30;99.90
51908;DHT22;39320;53.214;6.556;2023-01-24T02:16:55;4.30;99.90
51908;DHT22;39320;53.214;6.556;2023-01-24T02:19:36;5.30;99.90
51908;DHT22;39320;53.214;6.556;2023-01-24T02:25:13;4.30;99.90
51908;DHT22;39320;53.214;6.556;2023-01-24T02:27:40;4.30;99.90
51908;DHT22;39320;53.214;6.556;2023-01-24T02:30:06;4.00;99.90
51908;DHT22;39320;53.214;6.556;2023-01-24T02:32:35;4.30;99.90
51908;DHT22;39320;53.214;6.556;2023-01-24T02:35:02;4.30;99.90
51908;DHT22;39320;53.214;6.556;2023-01-24T02:37:28;4.30;99.90
51908;DHT22;39320;53.214;6.556;2023-01-24T02:40:09;4.30;99.90
51908;DHT22;39320;53.214;6.556;2023-01-24T02:42:38;4.30;99.90
51908;DHT22;39320;53.214;6.556;2023-01-24T02:47:38;4.40;99.90
51908;DHT22;39320;53.214;6.556;2023-01-24T02:50:06;4.40;99.90
51908;DHT22;39320;53.214;6.556;2023-01-24T02:52:33;4.40;99.90
51908;DHT22;39320;53.214;6.556;2023-01-24T02:55:18;4.40;99.90
51908;DHT22;39320;53.214;6.556;2023-01-24T02:57:44;4.40;99.90
51908;DHT22;39320;53.214;6.556;2023-01-24T03:00:30;4.40;99.90
51908;DHT22;39320;53.214;6.556;2023-01-24T03:02:56;4.40;99.90
51908;DHT22;39320;53.214;6.556;2023-01-24T03:05:21;4.40;99.90
51908;DHT22;39320;53.214;6.556;2023-01-24T03:07:47;4.40;99.90
51908;DHT22;39320;53.214;6.556;2023-01-24T03:10:16;4.40;99.90
51908;DHT22;39320;53.214;6.556;2023-01-24T03:12:42;4.40;99.90
51908;DHT22;39320;53.214;6.556;2023-01-24T03:15:27;4.70;99.90
51908;DHT22;39320;53.214;6.556;2023-01-24T03:18:11;4.80;99.90
51908;DHT22;39320;53.214;6.556;2023-01-24T03:20:55;4.40;99.90
51908;DHT22;39320;53.214;6.556;2023-01-24T03:23:40;4.40;99.90
51908;DHT22;39320;53.214;6.556;2023-01-24T03:26:24;4.50;99.90
51908;DHT22;39320;53.214;6.556;2023-01-24T03:29:10;4.40;99.90
51908;DHT22;39320;53.214;6.556;2023-01-24T03:31:54;4.40;99.90
51908;DHT22;39320;53.214;6.556;2023-01-24T03:34:38;4.40;99.90
51908;DHT22;39320;53.214;6.556;2023-01-24T03:37:24;4.60;99.90
51908;DHT22;39320;53.214;6.556;2023-01-24T03:40:11;4.40;99.90
51908;DHT22;39320;53.214;6.556;2023-01-24T03:42:37;4.40;99.90
51908;DHT22;39320;53.214;6.556;2023-01-24T03:45:34;4.40;99.90
51908;DHT22;39320;53.214;6.556;2023-01-24T03:48:04;4.40;99.90
51908;DHT22;39320;53.214;6.556;2023-01-24T03:50:40;4.40;99.90
51908;DHT22;39320;53.214;6.556;2023-01-24T03:53:26;4.40;99.90
51908;DHT22;39320;53.214;6.556;2023-01-24T03:55:57;4.40;99.90
51908;DHT22;39320;53.214;6.556;2023-01-24T03:58:24;4.70;99.90
51908;DHT22;39320;53.214;6.556;2023-01-24T04:00:52;4.40;99.90
51908;DHT22;39320;53.214;6.556;2023-01-24T04:03:18;4.40;99.90
51908;DHT22;39320;53.214;6.556;2023-01-24T04:05:45;4.40;99.90
51908;DHT22;39320;53.214;6.556;2023-01-24T04:08:11;4.40;99.90
51908;DHT22;39320;53.214;6.556;2023-01-24T04:10:37;4.60;99.90
51908;DHT22;39320;53.214;6.556;2023-01-24T04:13:02;4.50;99.90
51908;DHT22;39320;53.214;6.556;2023-01-24T04:15:30;4.40;99.90
51908;DHT22;39320;53.214;6.556;2023-01-24T04:17:57;4.40;99.90
51908;DHT22;39320;53.214;6.556;2023-01-24T04:20:26;4.40;99.90
51908;DHT22;39320;53.214;6.556;2023-01-24T04:22:52;4.80;99.90
51908;DHT22;39320;53.214;6.556;2023-01-24T04:25:18;4.40;99.90
51908;DHT22;39320;53.214;6.556;2023-01-24T04:27:44;4.50;99.90
51908;DHT22;39320;53.214;6.556;2023-01-24T04:30:11;4.50;99.90
51908;DHT22;39320;53.214;6.556;2023-01-24T04:32:37;4.40;99.90
51908;DHT22;39320;53.214;6.556;2023-01-24T04:35:03;4.40;99.90
51908;DHT22;39320;53.214;6.556;2023-01-24T04:37:31;4.40;99.90
51908;DHT22;39320;53.214;6.556;2023-01-24T04:39:57;4.40;99.90
51908;DHT22;39320;53.214;6.556;2023-01-24T04:42:23;4.40;99.90
51908;DHT22;39320;53.214;6.556;2023-01-24T04:44:49;4.40;99.90
51908;DHT22;39320;53.214;6.556;2023-01-24T04:47:14;4.40;99.90
51908;DHT22;39320;53.214;6.556;2023-01-24T04:49:40;4.40;99.90
51908;DHT22;39320;53.214;6.556;2023-01-24T04:52:12;4.40;99.90
51908;DHT22;39320;53.214;6.556;2023-01-24T04:54:41;4.40;99.90
51908;DHT22;39320;53.214;6.556;2023-01-24T04:57:07;4.40;99.90
51908;DHT22;39320;53.214;6.556;2023-01-24T04:59:36;5.10;99.90
51908;DHT22;39320;53.214;6.556;2023-01-24T05:02:01;4.70;99.90
51908;DHT22;39320;53.214;6.556;2023-01-24T05:04:27;4.70;99.90
51908;DHT22;39320;53.214;6.556;2023-01-24T05:06:53;4.40;99.90
51908;DHT22;39320;53.214;6.556;2023-01-24T05:09:18;4.50;99.90
51908;DHT22;39320;53.214;6.556;2023-01-24T05:11:44;4.40;99.90
51908;DHT22;39320;53.214;6.556;2023-01-24T05:14:10;4.40;99.90
51908;DHT22;39320;53.214;6.556;2023-01-24T05:16:36;4.40;99.90
51908;DHT22;39320;53.214;6.556;2023-01-24T05:19:03;4.40;99.90
51908;DHT22;39320;53.214;6.556;2023-01-24T05:21:29;4.40;99.90
51908;DHT22;39320;53.214;6.556;2023-01-24T05:23:54;4.70;99.90
51908;DHT22;39320;53.214;6.556;2023-01-24T05:26:23;5.00;99.90
51908;DHT22;39320;53.214;6.556;2023-01-24T05:28:49;4.90;99.90
51908;DHT22;39320;53.214;6.556;2023-01-24T05:31:15;4.80;99.90
51908;DHT22;39320;53.214;6.556;2023-01-24T05:33:41;4.30;99.90
51908;DHT22;39320;53.214;6.556;2023-01-24T05:36:21;4.70;99.90
51908;DHT22;39320;53.214;6.556;2023-01-24T05:38:47;4.40;99.90
51908;DHT22;39320;53.214;6.556;2023-01-24T05:41:15;4.30;99.90
51908;DHT22;39320;53.214;6.556;2023-01-24T05:43:42;4.40;99.90
51908;DHT22;39320;53.214;6.556;2023-01-24T05:46:12;4.40;99.90
51908;DHT22;39320;53.214;6.556;2023-01-24T05:48:38;4.20;99.90
51908;DHT22;39320;53.214;6.556;2023-01-24T05:51:08;4.40;99.90
51908;DHT22;39320;53.214;6.556;2023-01-24T05:53:36;4.40;99.90
51908;DHT22;39320;53.214;6.556;2023-01-24T05:56:08;4.40;99.90
51908;DHT22;39320;53.214;6.556;2023-01-24T05:58:36;4.50;99.90
51908;DHT22;39320;53.214;6.556;2023-01-24T06:01:21;4.30;99.90
51908;DHT22;39320;53.214;6.556;2023-01-24T06:03:50;4.40;99.90
51908;DHT22;39320;53.214;6.556;2023-01-24T06:06:17;4.30;99.90
51908;DHT22;39320;53.214;6.556;2023-01-24T06:08:44;4.30;99.90
51908;DHT22;39320;53.214;6.556;2023-01-24T06:11:13;4.40;99.90
51908;DHT22;39320;53.214;6.556;2023-01-24T06:13:39;4.30;99.90
51908;DHT22;39320;53.214;6.556;2023-01-24T06:16:12;4.30;99.90
51908;DHT22;39320;53.214;6.556;2023-01-24T06:18:39;4.30;99.90
51908;DHT22;39320;53.214;6.556;2023-01-24T06:23:32;4.30;99.90
51908;DHT22;39320;53.214;6.556;2023-01-24T06:25:58;4.30;99.90
51908;DHT22;39320;53.214;6.556;2023-01-24T06:28:24;4.30;99.90
51908;DHT22;39320;53.214;6.556;2023-01-24T06:31:00;4.30;99.90
51908;DHT22;39320;53.214;6.556;2023-01-24T06:34:32;4.30;99.90
51908;DHT22;39320;53.214;6.556;2023-01-24T06:39:18;4.30;99.90
51908;DHT22;39320;53.214;6.556;2023-01-24T06:41:45;4.30;99.90
51908;DHT22;39320;53.214;6.556;2023-01-24T06:44:11;4.30;99.90
51908;DHT22;39320;53.214;6.556;2023-01-24T06:46:37;4.30;99.90
51908;DHT22;39320;53.214;6.556;2023-01-24T06:49:03;4.20;99.90
51908;DHT22;39320;53.214;6.556;2023-01-24T06:51:28;4.20;99.90
51908;DHT22;39320;53.214;6.556;2023-01-24T06:53:54;4.80;99.90
51908;DHT22;39320;53.214;6.556;2023-01-24T06:56:20;4.20;99.90
51908;DHT22;39320;53.214;6.556;2023-01-24T06:58:46;4.30;99.90
51908;DHT22;39320;53.214;6.556;2023-01-24T07:01:12;4.30;99.90
51908;DHT22;39320;53.214;6.556;2023-01-24T07:03:38;4.30;99.90
51908;DHT22;39320;53.214;6.556;2023-01-24T07:06:04;4.20;99.90
51908;DHT22;39320;53.214;6.556;2023-01-24T07:08:30;4.20;99.90
51908;DHT22;39320;53.214;6.556;2023-01-24T07:10:58;4.20;99.90
51908;DHT22;39320;53.214;6.556;2023-01-24T07:13:24;4.20;99.90
51908;DHT22;39320;53.214;6.556;2023-01-24T07:15:50;4.20;99.90
51908;DHT22;39320;53.214;6.556;2023-01-24T07:18:17;4.20;99.90
51908;DHT22;39320;53.214;6.556;2023-01-24T07:20:44;4.20;99.90
51908;DHT22;39320;53.214;6.556;2023-01-24T07:23:23;4.20;99.90
51908;DHT22;39320;53.214;6.556;2023-01-24T07:25:53;4.20;99.90
51908;DHT22;39320;53.214;6.556;2023-01-24T07:28:19;4.20;99.90
51908;DHT22;39320;53.214;6.556;2023-01-24T07:30:44;4.20;99.90
51908;DHT22;39320;53.214;6.556;2023-01-24T07:33:15;4.20;99.90
51908;DHT22;39320;53.214;6.556;2023-01-24T07:35:42;4.20;99.90
51908;DHT22;39320;53.214;6.556;2023-01-24T07:38:07;4.20;99.90
51908;DHT22;39320;53.214;6.556;2023-01-24T07:40:33;4.20;99.90
51908;DHT22;39320;53.214;6.556;2023-01-24T07:43:03;4.20;99.90
51908;DHT22;39320;53.214;6.556;2023-01-24T07:45:29;4.20;99.90
51908;DHT22;39320;53.214;6.556;2023-01-24T07:47:59;4.40;99.90
51908;DHT22;39320;53.214;6.556;2023-01-24T07:50:26;5.00;99.90
51908;DHT22;39320;53.214;6.556;2023-01-24T07:52:55;4.60;99.90
51908;DHT22;39320;53.214;6.556;2023-01-24T07:55:21;4.20;99.90
51908;DHT22;39320;53.214;6.556;2023-01-24T07:57:47;4.20;99.90
51908;DHT22;39320;53.214;6.556;2023-01-24T08:00:14;4.30;99.90
51908;DHT22;39320;53.214;6.556;2023-01-24T08:02:41;4.20;99.90
51908;DHT22;39320;53.214;6.556;2023-01-24T08:05:08;4.20;99.90
51908;DHT22;39320;53.214;6.556;2023-01-24T08:07:34;4.20;99.90
51908;DHT22;39320;53.214;6.556;2023-01-24T08:09:59;4.20;99.90
51908;DHT22;39320;53.214;6.556;2023-01-24T08:12:25;4.20;99.90
51908;DHT22;39320;53.214;6.556;2023-01-24T08:14:51;4.20;99.90
51908;DHT22;39320;53.214;6.556;2023-01-24T08:17:17;4.20;99.90
51908;DHT22;39320;53.214;6.556;2023-01-24T08:19:43;4.50;99.90
51908;DHT22;39320;53.214;6.556;2023-01-24T08:22:09;4.20;99.90
51908;DHT22;39320;53.214;6.556;2023-01-24T08:24:35;4.20;99.90
51908;DHT22;39320;53.214;6.556;2023-01-24T08:27:01;4.60;99.90
51908;DHT22;39320;53.214;6.556;2023-01-24T08:29:27;4.40;99.90
51908;DHT22;39320;53.214;6.556;2023-01-24T08:31:53;4.20;99.90
51908;DHT22;39320;53.214;6.556;2023-01-24T08:34:19;4.20;99.90
51908;DHT22;39320;53.214;6.556;2023-01-24T08:36:45;4.20;99.90
51908;DHT22;39320;53.214;6.556;2023-01-24T08:39:10;4.20;99.90
51908;DHT22;39320;53.214;6.556;2023-01-24T08:41:37;4.20;99.90
51908;DHT22;39320;53.214;6.556;2023-01-24T08:44:04;4.20;99.90
51908;DHT22;39320;53.214;6.556;2023-01-24T08:46:30;4.20;99.90
51908;DHT22;39320;53.214;6.556;2023-01-24T08:48:56;4.20;99.90
51908;DHT22;39320;53.214;6.556;2023-01-24T08:51:22;4.20;99.90
51908;DHT22;39320;53.214;6.556;2023-01-24T08:53:47;4.20;99.90
51908;DHT22;39320;53.214;6.556;2023-01-24T08:56:13;4.20;99.90
51908;DHT22;39320;53.214;6.556;2023-01-24T08:58:39;4.20;99.90
51908;DHT22;39320;53.214;6.556;2023-01-24T09:01:08;4.30;99.90
51908;DHT22;39320;53.214;6.556;2023-01-24T09:03:35;4.20;99.90
51908;DHT22;39320;53.214;6.556;2023-01-24T09:06:02;4.20;99.90
51908;DHT22;39320;53.214;6.556;2023-01-24T09:08:28;4.20;99.90
51908;DHT22;39320;53.214;6.556;2023-01-24T09:10:57;4.40;99.90
51908;DHT22;39320;53.214;6.556;2023-01-24T09:13:24;4.30;99.90
51908;DHT22;39320;53.214;6.556;2023-01-24T09:15:50;4.20;99.90
51908;DHT22;39320;53.214;6.556;2023-01-24T09:18:15;4.30;99.90
51908;DHT22;39320;53.214;6.556;2023-01-24T09:20:42;4.30;99.90
51908;DHT22;39320;53.214;6.556;2023-01-24T09:23:12;4.30;99.90
51908;DHT22;39320;53.214;6.556;2023-01-24T09:25:48;4.30;99.90
51908;DHT22;39320;53.214;6.556;2023-01-24T09:28:14;4.30;99.90
51908;DHT22;39320;53.214;6.556;2023-01-24T09:30:40;4.20;99.90
51908;DHT22;39320;53.214;6.556;2023-01-24T09:33:05;4.20;99.90
51908;DHT22;39320;53.214;6.556;2023-01-24T09:35:31;4.20;99.90
51908;DHT22;39320;53.214;6.556;2023-01-24T09:37:57;4.20;99.90
51908;DHT22;39320;53.214;6.556;2023-01-24T09:40:30;4.20;99.90
51908;DHT22;39320;53.214;6.556;2023-01-24T09:43:06;4.20;99.90
51908;DHT22;39320;53.214;6.556;2023-01-24T09:48:27;3.80;99.90
51908;DHT22;39320;53.214;6.556;2023-01-24T09:50:58;4.20;99.90
51908;DHT22;39320;53.214;6.556;2023-01-24T09:53:34;4.30;99.90
51908;DHT22;39320;53.214;6.556;2023-01-24T09:56:02;4.20;99.90
51908;DHT22;39320;53.214;6.556;2023-01-24T09:58:39;4.30;99.90
51908;DHT22;39320;53.214;6.556;2023-01-24T10:01:13;4.20;99.90
51908;DHT22;39320;53.214;6.556;2023-01-24T10:03:39;4.30;99.90
51908;DHT22;39320;53.214;6.556;2023-01-24T10:06:16;4.40;99.90
51908;DHT22;39320;53.214;6.556;2023-01-24T10:11:45;4.20;99.90
51908;DHT22;39320;53.214;6.556;2023-01-24T10:25:40;4.30;99.90
51908;DHT22;39320;53.214;6.556;2023-01-24T10:28:18;4.30;99.90
51908;DHT22;39320;53.214;6.556;2023-01-24T10:33:16;4.30;99.90
51908;DHT22;39320;53.214;6.556;2023-01-24T10:35:58;4.20;99.90
51908;DHT22;39320;53.214;6.556;2023-01-24T10:38:26;4.20;99.90
51908;DHT22;39320;53.214;6.556;2023-01-24T10:40:54;4.30;99.90
51908;DHT22;39320;53.214;6.556;2023-01-24T10:43:26;4.30;99.90
51908;DHT22;39320;53.214;6.556;2023-01-24T10:46:04;4.50;99.90
51908;DHT22;39320;53.214;6.556;2023-01-24T10:48:45;4.80;99.90
51908;DHT22;39320;53.214;6.556;2023-01-24T10:51:17;4.30;99.90
51908;DHT22;39320;53.214;6.556;2023-01-24T10:53:44;4.30;99.90
51908;DHT22;39320;53.214;6.556;2023-01-24T10:56:11;4.60;99.90
51908;DHT22;39320;53.214;6.556;2023-01-24T10:58:43;4.30;99.90
51908;DHT22;39320;53.214;6.556;2023-01-24T11:01:23;4.30;99.90
51908;DHT22;39320;53.214;6.556;2023-01-24T11:03:51;4.30;99.90
51908;DHT22;39320;53.214;6.556;2023-01-24T11:06:37;4.50;99.90
51908;DHT22;39320;53.214;6.556;2023-01-24T11:09:11;4.30;99.90
51908;DHT22;39320;53.214;6.556;2023-01-24T11:11:44;4.30;99.90
51908;DHT22;39320;53.214;6.556;2023-01-24T11:14:17;4.30;99.90
51908;DHT22;39320;53.214;6.556;2023-01-24T11:16:51;4.30;99.90
51908;DHT22;39320;53.214;6.556;2023-01-24T11:19:31;4.30;99.90
51908;DHT22;39320;53.214;6.556;2023-01-24T11:22:00;4.30;99.90
51908;DHT22;39320;53.214;6.556;2023-01-24T11:24:27;4.30;99.90
51908;DHT22;39320;53.214;6.556;2023-01-24T11:27:14;4.30;99.90
51908;DHT22;39320;53.214;6.556;2023-01-24T11:29:40;4.30;99.90
51908;DHT22;39320;53.214;6.556;2023-01-24T11:32:31;4.30;99.90
51908;DHT22;39320;53.214;6.556;2023-01-24T11:35:21;4.30;99.90
51908;DHT22;39320;53.214;6.556;2023-01-24T11:57:02;4.30;99.90
51908;DHT22;39320;53.214;6.556;2023-01-24T12:21:17;4.30;99.90
51908;DHT22;39320;53.214;6.556;2023-01-24T12:23:51;4.30;99.90
51908;DHT22;39320;53.214;6.556;2023-01-24T12:32:03;4.30;99.90
51908;DHT22;39320;53.214;6.556;2023-01-24T12:37:35;4.30;99.90
51908;DHT22;39320;53.214;6.556;2023-01-24T12:40:13;4.30;99.90
51908;DHT22;39320;53.214;6.556;2023-01-24T12:43:04;4.30;99.90
51908;DHT22;39320;53.214;6.556;2023-01-24T12:45:52;4.30;99.90
51908;DHT22;39320;53.214;6.556;2023-01-24T12:51:30;4.30;99.90
51908;DHT22;39320;53.214;6.556;2023-01-24T12:59:13;4.20;99.90
51908;DHT22;39320;53.214;6.556;2023-01-24T13:12:36;4.30;99.90
51908;DHT22;39320;53.214;6.556;2023-01-24T13:15:05;4.30;99.90
51908;DHT22;39320;53.214;6.556;2023-01-24T13:20:45;4.20;99.90
51908;DHT22;39320;53.214;6.556;2023-01-24T13:29:02;4.30;99.90
51908;DHT22;39320;53.214;6.556;2023-01-24T13:31:43;4.30;99.90
51908;DHT22;39320;53.214;6.556;2023-01-24T13:34:17;4.30;99.90
51908;DHT22;39320;53.214;6.556;2023-01-24T13:36:48;4.30;99.90
51908;DHT22;39320;53.214;6.556;2023-01-24T13:44:42;4.30;99.90
51908;DHT22;39320;53.214;6.556;2023-01-24T13:49:37;4.30;99.90
51908;DHT22;39320;53.214;6.556;2023-01-24T13:57:45;4.20;99.90
51908;DHT22;39320;53.214;6.556;2023-01-24T14:05:41;4.20;99.90
51908;DHT22;39320;53.214;6.556;2023-01-24T14:19:15;4.20;99.90
51908;DHT22;39320;53.214;6.556;2023-01-24T14:21:55;4.20;99.90
51908;DHT22;39320;53.214;6.556;2023-01-24T14:24:35;4.10;99.90
51908;DHT22;39320;53.214;6.556;2023-01-24T14:30:38;4.20;99.90
51908;DHT22;39320;53.214;6.556;2023-01-24T14:33:17;4.20;99.90
51908;DHT22;39320;53.214;6.556;2023-01-24T14:36:37;4.20;99.90
51908;DHT22;39320;53.214;6.556;2023-01-24T14:38:36;4.20;99.90
51908;DHT22;39320;53.214;6.556;2023-01-24T14:41:02;4.20;99.90
51908;DHT22;39320;53.214;6.556;2023-01-24T14:43:47;4.20;99.90
51908;DHT22;39320;53.214;6.556;2023-01-24T14:46:21;4.20;99.90
51908;DHT22;39320;53.214;6.556;2023-01-24T14:48:47;4.20;99.90
51908;DHT22;39320;53.214;6.556;2023-01-24T14:51:23;4.20;99.90
51908;DHT22;39320;53.214;6.556;2023-01-24T14:53:51;4.20;99.90
51908;DHT22;39320;53.214;6.556;2023-01-24T14:56:18;4.20;99.90
51908;DHT22;39320;53.214;6.556;2023-01-24T14:58:44;4.20;99.90
51908;DHT22;39320;53.214;6.556;2023-01-24T15:01:31;4.40;99.90
51908;DHT22;39320;53.214;6.556;2023-01-24T15:03:59;4.70;99.90
51908;DHT22;39320;53.214;6.556;2023-01-24T15:06:27;4.20;99.90
51908;DHT22;39320;53.214;6.556;2023-01-24T15:08:58;4.20;99.90
51908;DHT22;39320;53.214;6.556;2023-01-24T15:14:17;4.20;99.90
51908;DHT22;39320;53.214;6.556;2023-01-24T15:16:52;4.20;99.90
51908;DHT22;39320;53.214;6.556;2023-01-24T15:19:20;4.20;99.90
51908;DHT22;39320;53.214;6.556;2023-01-24T15:21:48;4.10;99.90
51908;DHT22;39320;53.214;6.556;2023-01-24T15:24:34;4.10;99.90
51908;DHT22;39320;53.214;6.556;2023-01-24T15:35:20;4.10;99.90
51908;DHT22;39320;53.214;6.556;2023-01-24T15:40:32;4.10;99.90
51908;DHT22;39320;53.214;6.556;2023-01-24T15:42:58;4.10;99.90
51908;DHT22;39320;53.214;6.556;2023-01-24T15:45:49;4.10;99.90
51908;DHT22;39320;53.214;6.556;2023-01-24T15:48:20;4.10;99.90
51908;DHT22;39320;53.214;6.556;2023-01-24T15:50:54;4.10;99.90
51908;DHT22;39320;53.214;6.556;2023-01-24T15:53:38;4.10;99.90
51908;DHT22;39320;53.214;6.556;2023-01-24T15:56:19;4.10;99.90
51908;DHT22;39320;53.214;6.556;2023-01-24T15:58:49;4.10;99.90
51908;DHT22;39320;53.214;6.556;2023-01-24T16:01:15;4.00;99.90
51908;DHT22;39320;53.214;6.556;2023-01-24T16:03:41;4.00;99.90
51908;DHT22;39320;53.214;6.556;2023-01-24T16:06:07;4.00;99.90
51908;DHT22;39320;53.214;6.556;2023-01-24T16:08:33;4.50;99.90
51908;DHT22;39320;53.214;6.556;2023-01-24T16:10:59;3.90;99.90
51908;DHT22;39320;53.214;6.556;2023-01-24T16:15:55;3.90;99.90
51908;DHT22;39320;53.214;6.556;2023-01-24T16:18:21;3.90;99.90
51908;DHT22;39320;53.214;6.556;2023-01-24T16:20:46;3.90;99.90
51908;DHT22;39320;53.214;6.556;2023-01-24T16:23:13;4.10;99.90
51908;DHT22;39320;53.214;6.556;2023-01-24T16:25:39;3.90;99.90
51908;DHT22;39320;53.214;6.556;2023-01-24T16:28:04;4.10;99.90
51908;DHT22;39320;53.214;6.556;2023-01-24T16:30:31;4.50;99.90
51908;DHT22;39320;53.214;6.556;2023-01-24T16:32:58;3.80;99.90
51908;DHT22;39320;53.214;6.556;2023-01-24T16:35:24;3.80;99.90
51908;DHT22;39320;53.214;6.556;2023-01-24T16:37:49;3.80;99.90
51908;DHT22;39320;53.214;6.556;2023-01-24T16:40:16;3.80;99.90
51908;DHT22;39320;53.214;6.556;2023-01-24T16:42:45;3.80;99.90
51908;DHT22;39320;53.214;6.556;2023-01-24T16:45:16;4.30;99.90
51908;DHT22;39320;53.214;6.556;2023-01-24T16:47:42;4.30;99.90
51908;DHT22;39320;53.214;6.556;2023-01-24T16:50:10;3.80;99.90
51908;DHT22;39320;53.214;6.556;2023-01-24T16:52:36;3.70;99.90
51908;DHT22;39320;53.214;6.556;2023-01-24T16:55:02;3.80;99.90
51908;DHT22;39320;53.214;6.556;2023-01-24T16:57:28;3.80;99.90
51908;DHT22;39320;53.214;6.556;2023-01-24T16:59:55;4.20;99.90
51908;DHT22;39320;53.214;6.556;2023-01-24T17:02:21;3.70;99.90
51908;DHT22;39320;53.214;6.556;2023-01-24T17:04:47;3.80;99.90
51908;DHT22;39320;53.214;6.556;2023-01-24T17:07:13;4.20;99.90
51908;DHT22;39320;53.214;6.556;2023-01-24T17:09:39;3.70;99.90
51908;DHT22;39320;53.214;6.556;2023-01-24T17:12:05;3.70;99.90
51908;DHT22;39320;53.214;6.556;2023-01-24T17:14:33;3.70;99.90
51908;DHT22;39320;53.214;6.556;2023-01-24T17:16:59;3.80;99.90
51908;DHT22;39320;53.214;6.556;2023-01-24T17:19:25;3.70;99.90
51908;DHT22;39320;53.214;6.556;2023-01-24T17:21:51;4.40;99.90
51908;DHT22;39320;53.214;6.556;2023-01-24T17:24:16;3.70;99.90
51908;DHT22;39320;53.214;6.556;2023-01-24T17:26:42;4.40;99.90
51908;DHT22;39320;53.214;6.556;2023-01-24T17:29:08;3.70;99.90
51908;DHT22;39320;53.214;6.556;2023-01-24T17:31:34;3.70;99.90
51908;DHT22;39320;53.214;6.556;2023-01-24T17:34:00;3.70;99.90
51908;DHT22;39320;53.214;6.556;2023-01-24T17:36:25;3.70;99.90
51908;DHT22;39320;53.214;6.556;2023-01-24T17:38:52;3.90;99.90
51908;DHT22;39320;53.214;6.556;2023-01-24T17:41:21;3.60;99.90
51908;DHT22;39320;53.214;6.556;2023-01-24T17:43:49;3.60;99.90
51908;DHT22;39320;53.214;6.556;2023-01-24T17:46:15;3.60;99.90
51908;DHT22;39320;53.214;6.556;2023-01-24T17:48:41;3.60;99.90
51908;DHT22;39320;53.214;6.556;2023-01-24T17:51:11;3.60;99.90
51908;DHT22;39320;53.214;6.556;2023-01-24T17:53:43;3.60;99.90
51908;DHT22;39320;53.214;6.556;2023-01-24T17:56:10;4.00;99.90
51908;DHT22;39320;53.214;6.556;2023-01-24T17:58:37;4.10;99.90
51908;DHT22;39320;53.214;6.556;2023-01-24T18:01:03;3.60;99.90
51908;DHT22;39320;53.214;6.556;2023-01-24T18:03:29;3.60;99.90
51908;DHT22;39320;53.214;6.556;2023-01-24T18:05:54;3.90;99.90
51908;DHT22;39320;53.214;6.556;2023-01-24T18:08:20;3.60;99.90
51908;DHT22;39320;53.214;6.556;2023-01-24T18:10:48;3.60;99.90
51908;DHT22;39320;53.214;6.556;2023-01-24T18:13:14;3.50;99.90
51908;DHT22;39320;53.214;6.556;2023-01-24T18:15:40;3.50;99.90
51908;DHT22;39320;53.214;6.556;2023-01-24T18:18:06;3.50;99.90
51908;DHT22;39320;53.214;6.556;2023-01-24T18:20:32;3.50;99.90
51908;DHT22;39320;53.214;6.556;2023-01-24T18:22:58;3.50;99.90
51908;DHT22;39320;53.214;6.556;2023-01-24T18:25:24;3.50;99.90
51908;DHT22;39320;53.214;6.556;2023-01-24T18:27:50;3.60;99.90
51908;DHT22;39320;53.214;6.556;2023-01-24T18:30:16;3.60;99.90
51908;DHT22;39320;53.214;6.556;2023-01-24T18:32:42;3.50;99.90
51908;DHT22;39320;53.214;6.556;2023-01-24T18:35:08;3.50;99.90
51908;DHT22;39320;53.214;6.556;2023-01-24T18:37:34;3.60;99.90
51908;DHT22;39320;53.214;6.556;2023-01-24T18:39:59;3.50;99.90
51908;DHT22;39320;53.214;6.556;2023-01-24T18:42:25;3.50;99.90